sensor_id;sensor_type;location;lat;lon;timestamp;pressure;altitude;pressure_sealevel;temperature;humidity
18652;BME280;9455;54.302;10.124;2024-03-23T00:55:07;100667.56;;;6.24;100.00
18652;BME280;9455;54.302;10.124;2024-03-23T00:57:33;100657.69;;;6.26;100.00
18652;BME280;9455;54.302;10.124;2024-03-23T01:00:00;100658.53;;;6.27;100.00
18652;BME280;9455;54.302;10.124;2024-03-23T01:02:25;100650.25;;;6.19;100.00
18652;BME280;9455;54.302;10.124;2024-03-23T01:04:52;100649.25;;;6.09;100.00
18652;BME280;9455;54.302;10.124;2024-03-23T01:07:18;100640.84;;;6.15;100.00
18652;BME280;9455;54.302;10.124;2024-03-23T01:09:44;100639.34;;;6.23;100.00
18652;BME280;9455;54.302;10.124;2024-03-23T01:12:11;100633.34;;;6.21;100.00
18652;BME280;9455;54.302;10.124;2024-03-23T01:14:38;100632.91;;;6.15;100.00
18652;BME280;9455;54.302;10.124;2024-03-23T01:17:03;100632.91;;;6.15;100.00
18652;BME280;9455;54.302;10.124;2024-03-23T01:19:30;100628.28;;;6.06;100.00
18652;BME280;9455;54.302;10.124;2024-03-23T01:21:56;100629.13;;;6.06;100.00
18652;BME280;9455;54.302;10.124;2024-03-23T01:24:22;100616.44;;;5.99;100.00
18652;BME280;9455;54.302;10.124;2024-03-23T01:26:48;100615.19;;;5.92;100.00
18652;BME280;9455;54.302;10.124;2024-03-23T01:29:16;100603.50;;;6.07;100.00
18652;BME280;9455;54.302;10.124;2024-03-23T01:31:42;100608.78;;;6.07;100.00
18652;BME280;9455;54.302;10.124;2024-03-23T01:34:08;100614.81;;;5.96;100.00
18652;BME280;9455;54.302;10.124;2024-03-23T01:36:34;100607.25;;;5.92;100.00
18652;BME280;9455;54.302;10.124;2024-03-23T01:39:01;100610.09;;;5.89;100.00
18652;BME280;9455;54.302;10.124;2024-03-23T01:41:26;100602.47;;;5.97;100.00
18652;BME280;9455;54.302;10.124;2024-03-23T01:43:55;100598.75;;;5.99;100.00
18652;BME280;9455;54.302;10.124;2024-03-23T01:46:22;100600.78;;;5.96;100.00
18652;BME280;9455;54.302;10.124;2024-03-23T01:48:49;100598.66;;;5.88;100.00
18652;BME280;9455;54.302;10.124;2024-03-23T01:51:15;100593.38;;;5.88;100.00
18652;BME280;9455;54.302;10.124;2024-03-23T01:53:42;100588.19;;;5.87;100.00
18652;BME280;9455;54.302;10.124;2024-03-23T01:56:08;100598.56;;;5.90;100.00
18652;BME280;9455;54.302;10.124;2024-03-23T01:58:35;100599.38;;;5.78;100.00
18652;BME280;9455;54.302;10.124;2024-03-23T02:01:00;100586.50;;;5.86;100.00
18652;BME280;9455;54.302;10.124;2024-03-23T02:03:28;100576.72;;;5.73;100.00
18652;BME280;9455;54.302;10.124;2024-03-23T02:05:54;100584.66;;;5.73;100.00
18652;BME280;9455;54.302;10.124;2024-03-23T02:08:22;100582.97;;;5.72;100.00
18652;BME280;9455;54.302;10.124;2024-03-23T02:10:48;100582.13;;;5.59;100.00
18652;BME280;9455;54.302;10.124;2024-03-23T02:13:17;100574.53;;;5.55;100.00
18652;BME280;9455;54.302;10.124;2024-03-23T02:15:43;100570.06;;;5.68;100.00
18652;BME280;9455;54.302;10.124;2024-03-23T02:18:10;100562.78;;;5.59;100.00
18652;BME280;9455;54.302;10.124;2024-03-23T02:20:37;100565.22;;;5.62;100.00
18652;BME280;9455;54.302;10.124;2024-03-23T02:23:06;100550.38;;;5.59;100.00
18652;BME280;9455;54.302;10.124;2024-03-23T02:25:31;100549.13;;;5.65;100.00
18652;BME280;9455;54.302;10.124;2024-03-23T02:27:59;100545.53;;;5.53;100.00
18652;BME280;9455;54.302;10.124;2024-03-23T02:30:25;100545.31;;;5.44;100.00
18652;BME280;9455;54.302;10.124;2024-03-23T02:32:51;100547.97;;;5.44;100.00
18652;BME280;9455;54.302;10.124;2024-03-23T02:35:17;100544.28;;;5.46;100.00
18652;BME280;9455;54.302;10.124;2024-03-23T02:37:46;100538.03;;;5.35;100.00
18652;BME280;9455;54.302;10.124;2024-03-23T02:40:13;100538.34;;;5.18;100.00
18652;BME280;9455;54.302;10.124;2024-03-23T02:42:40;100536.31;;;5.21;100.00
18652;BME280;9455;54.302;10.124;2024-03-23T02:45:05;100538.84;;;5.10;100.00
18652;BME280;9455;54.302;10.124;2024-03-23T02:47:33;100537.66;;;4.89;100.00
18652;BME280;9455;54.302;10.124;2024-03-23T02:49:58;100530.09;;;5.10;100.00
18652;BME280;9455;54.302;10.124;2024-03-23T02:52:25;100528.59;;;5.06;100.00
18652;BME280;9455;54.302;10.124;2024-03-23T02:54:51;100534.00;;;5.04;100.00
18652;BME280;9455;54.302;10.124;2024-03-23T02:57:19;100522.28;;;5.08;100.00
18652;BME280;9455;54.302;10.124;2024-03-23T02:59:45;100526.41;;;5.00;100.00
18652;BME280;9455;54.302;10.124;2024-03-23T03:02:12;100512.31;;;4.87;100.00
18652;BME280;9455;54.302;10.124;2024-03-23T03:04:38;100505.25;;;4.87;100.00
18652;BME280;9455;54.302;10.124;2024-03-23T03:07:05;100513.69;;;4.92;100.00
18652;BME280;9455;54.302;10.124;2024-03-23T03:09:31;100503.63;;;4.85;100.00
18652;BME280;9455;54.302;10.124;2024-03-23T03:11:58;100500.69;;;4.89;100.00
18652;BME280;9455;54.302;10.124;2024-03-23T03:14:25;100506.38;;;4.83;100.00
18652;BME280;9455;54.302;10.124;2024-03-23T03:16:51;100500.66;;;4.77;100.00
18652;BME280;9455;54.302;10.124;2024-03-23T03:19:17;100495.16;;;4.67;100.00
18652;BME280;9455;54.302;10.124;2024-03-23T03:21:44;100497.47;;;4.59;100.00
18652;BME280;9455;54.302;10.124;2024-03-23T03:24:09;100489.00;;;4.54;100.00
18652;BME280;9455;54.302;10.124;2024-03-23T03:26:36;100494.09;;;4.70;100.00
18652;BME280;9455;54.302;10.124;2024-03-23T03:29:02;100477.63;;;4.66;100.00
18652;BME280;9455;54.302;10.124;2024-03-23T03:31:30;100484.06;;;4.62;100.00
18652;BME280;9455;54.302;10.124;2024-03-23T03:33:56;100479.53;;;4.64;100.00
18652;BME280;9455;54.302;10.124;2024-03-23T03:36:23;100479.94;;;4.58;100.00
18652;BME280;9455;54.302;10.124;2024-03-23T03:38:48;100472.84;;;4.46;100.00
18652;BME280;9455;54.302;10.124;2024-03-23T03:41:15;100481.47;;;4.48;100.00
18652;BME280;9455;54.302;10.124;2024-03-23T03:43:41;100471.78;;;4.49;100.00
18652;BME280;9455;54.302;10.124;2024-03-23T03:46:08;100470.22;;;4.59;100.00
18652;BME280;9455;54.302;10.124;2024-03-23T03:48:35;100468.72;;;4.42;100.00
18652;BME280;9455;54.302;10.124;2024-03-23T03:51:01;100464.25;;;4.43;100.00
18652;BME280;9455;54.302;10.124;2024-03-23T03:53:27;100455.59;;;4.28;100.00
18652;BME280;9455;54.302;10.124;2024-03-23T03:55:54;100454.06;;;4.24;100.00
18652;BME280;9455;54.302;10.124;2024-03-23T03:58:19;100460.88;;;4.28;100.00
18652;BME280;9455;54.302;10.124;2024-03-23T04:00:46;100449.41;;;4.15;100.00
18652;BME280;9455;54.302;10.124;2024-03-23T04:03:11;100454.34;;;4.07;100.00
18652;BME280;9455;54.302;10.124;2024-03-23T04:05:39;100447.22;;;4.22;100.00
18652;BME280;9455;54.302;10.124;2024-03-23T04:08:06;100448.84;;;4.10;100.00
18652;BME280;9455;54.302;10.124;2024-03-23T04:10:33;100446.44;;;4.07;100.00
18652;BME280;9455;54.302;10.124;2024-03-23T04:13:00;100445.28;;;4.11;100.00
18652;BME280;9455;54.302;10.124;2024-03-23T04:15:29;100440.09;;;4.10;100.00
18652;BME280;9455;54.302;10.124;2024-03-23T04:17:55;100424.47;;;4.07;100.00
18652;BME280;9455;54.302;10.124;2024-03-23T04:20:21;100417.16;;;3.98;100.00
18652;BME280;9455;54.302;10.124;2024-03-23T04:22:48;100418.00;;;3.98;100.00
18652;BME280;9455;54.302;10.124;2024-03-23T04:25:15;100418.16;;;3.83;100.00
18652;BME280;9455;54.302;10.124;2024-03-23T04:27:41;100426.69;;;3.86;100.00
18652;BME280;9455;54.302;10.124;2024-03-23T04:30:08;100421.44;;;3.86;100.00
18652;BME280;9455;54.302;10.124;2024-03-23T04:32:36;100426.94;;;3.83;100.00
18652;BME280;9455;54.302;10.124;2024-03-23T04:35:03;100424.88;;;3.74;100.00
18652;BME280;9455;54.302;10.124;2024-03-23T04:37:31;100421.09;;;3.78;100.00
18652;BME280;9455;54.302;10.124;2024-03-23T04:39:59;100422.53;;;3.70;100.00
18652;BME280;9455;54.302;10.124;2024-03-23T04:42:26;100410.84;;;3.74;100.00
18652;BME280;9455;54.302;10.124;2024-03-23T04:44:53;100412.06;;;3.68;100.00
18652;BME280;9455;54.302;10.124;2024-03-23T04:47:19;100410.59;;;3.64;100.00
18652;BME280;9455;54.302;10.124;2024-03-23T04:49:46;100402.28;;;3.70;100.00
18652;BME280;9455;54.302;10.124;2024-03-23T04:52:12;100400.00;;;3.78;100.00
18652;BME280;9455;54.302;10.124;2024-03-23T04:54:39;100394.47;;;3.69;100.00
18652;BME280;9455;54.302;10.124;2024-03-23T04:57:08;100389.50;;;3.64;100.00
18652;BME280;9455;54.302;10.124;2024-03-23T04:59:33;100390.06;;;3.69;100.00
18652;BME280;9455;54.302;10.124;2024-03-23T05:02:00;100394.75;;;3.64;100.00
18652;BME280;9455;54.302;10.124;2024-03-23T05:04:26;100396.44;;;3.65;100.00
18652;BME280;9455;54.302;10.124;2024-03-23T05:06:52;100394.56;;;3.67;100.00
18652;BME280;9455;54.302;10.124;2024-03-23T05:09:18;100395.34;;;3.69;100.00
18652;BME280;9455;54.302;10.124;2024-03-23T05:11:45;100391.13;;;3.53;100.00
18652;BME280;9455;54.302;10.124;2024-03-23T05:14:13;100389.69;;;3.61;100.00
18652;BME280;9455;54.302;10.124;2024-03-23T05:16:39;100384.88;;;3.68;100.00
18652;BME280;9455;54.302;10.124;2024-03-23T05:19:05;100405.50;;;3.61;100.00
18652;BME280;9455;54.302;10.124;2024-03-23T05:21:32;100398.66;;;3.59;100.00
18652;BME280;9455;54.302;10.124;2024-03-23T05:23:58;100393.44;;;3.71;100.00
18652;BME280;9455;54.302;10.124;2024-03-23T05:26:24;100394.91;;;3.75;100.00
18652;BME280;9455;54.302;10.124;2024-03-23T05:28:50;100397.31;;;3.92;100.00
18652;BME280;9455;54.302;10.124;2024-03-23T05:31:24;100397.88;;;3.97;100.00
18652;BME280;9455;54.302;10.124;2024-03-23T05:33:50;100412.94;;;3.95;100.00
18652;BME280;9455;54.302;10.124;2024-03-23T05:36:17;100407.56;;;3.97;100.00
18652;BME280;9455;54.302;10.124;2024-03-23T05:38:42;100406.44;;;4.13;100.00
18652;BME280;9455;54.302;10.124;2024-03-23T05:41:09;100409.03;;;4.40;100.00
18652;BME280;9455;54.302;10.124;2024-03-23T05:43:35;100406.19;;;4.43;100.00
18652;BME280;9455;54.302;10.124;2024-03-23T05:46:02;100403.56;;;4.55;100.00
18652;BME280;9455;54.302;10.124;2024-03-23T05:48:30;100404.63;;;4.65;100.00
18652;BME280;9455;54.302;10.124;2024-03-23T05:50:57;100399.44;;;4.76;100.00
18652;BME280;9455;54.302;10.124;2024-03-23T05:53:23;100405.06;;;4.59;100.00
18652;BME280;9455;54.302;10.124;2024-03-23T05:55:50;100397.16;;;4.59;100.00
18652;BME280;9455;54.302;10.124;2024-03-23T05:58:17;100397.34;;;4.69;100.00
18652;BME280;9455;54.302;10.124;2024-03-23T06:00:45;100393.44;;;4.74;100.00
18652;BME280;9455;54.302;10.124;2024-03-23T06:03:11;100389.75;;;4.64;100.00
18652;BME280;9455;54.302;10.124;2024-03-23T06:05:40;100384.16;;;4.69;100.00
18652;BME280;9455;54.302;10.124;2024-03-23T06:08:08;100387.84;;;4.66;100.00
18652;BME280;9455;54.302;10.124;2024-03-23T06:10:35;100381.31;;;4.59;100.00
18652;BME280;9455;54.302;10.124;2024-03-23T06:13:00;100377.06;;;4.69;100.00
18652;BME280;9455;54.302;10.124;2024-03-23T06:15:27;100381.81;;;4.64;100.00
18652;BME280;9455;54.302;10.124;2024-03-23T06:17:53;100376.44;;;4.53;100.00
18652;BME280;9455;54.302;10.124;2024-03-23T06:20:19;100371.88;;;4.55;100.00
18652;BME280;9455;54.302;10.124;2024-03-23T06:22:46;100371.56;;;4.60;100.00
18652;BME280;9455;54.302;10.124;2024-03-23T06:25:13;100370.59;;;4.61;100.00
18652;BME280;9455;54.302;10.124;2024-03-23T06:27:39;100364.81;;;4.56;100.00
18652;BME280;9455;54.302;10.124;2024-03-23T06:30:07;100371.16;;;4.53;100.00
18652;BME280;9455;54.302;10.124;2024-03-23T06:32:32;100370.84;;;4.58;100.00
18652;BME280;9455;54.302;10.124;2024-03-23T06:34:59;100373.59;;;4.56;100.00
18652;BME280;9455;54.302;10.124;2024-03-23T06:37:25;100375.06;;;4.60;100.00
18652;BME280;9455;54.302;10.124;2024-03-23T06:39:55;100369.38;;;4.66;100.00
18652;BME280;9455;54.302;10.124;2024-03-23T06:42:20;100372.84;;;4.67;100.00
18652;BME280;9455;54.302;10.124;2024-03-23T06:44:47;100373.03;;;4.76;100.00
18652;BME280;9455;54.302;10.124;2024-03-23T06:47:13;100379.38;;;4.86;100.00
18652;BME280;9455;54.302;10.124;2024-03-23T06:49:39;100368.16;;;5.08;100.00
18652;BME280;9455;54.302;10.124;2024-03-23T06:52:05;100373.63;;;5.17;100.00
18652;BME280;9455;54.302;10.124;2024-03-23T06:54:32;100372.78;;;5.29;100.00
18652;BME280;9455;54.302;10.124;2024-03-23T06:56:59;100357.09;;;5.39;100.00
18652;BME280;9455;54.302;10.124;2024-03-23T06:59:25;100354.84;;;5.45;100.00
18652;BME280;9455;54.302;10.124;2024-03-23T07:01:51;100356.56;;;5.46;100.00
18652;BME280;9455;54.302;10.124;2024-03-23T07:04:17;100349.53;;;5.58;100.00
18652;BME280;9455;54.302;10.124;2024-03-23T07:06:44;100356.94;;;5.76;100.00
18652;BME280;9455;54.302;10.124;2024-03-23T07:09:11;100364.72;;;5.91;100.00
18652;BME280;9455;54.302;10.124;2024-03-23T07:11:37;100357.69;;;6.02;100.00
18652;BME280;9455;54.302;10.124;2024-03-23T07:14:05;100359.56;;;6.13;100.00
18652;BME280;9455;54.302;10.124;2024-03-23T07:16:31;100364.88;;;6.24;100.00
18652;BME280;9455;54.302;10.124;2024-03-23T07:18:57;100359.25;;;6.39;100.00
18652;BME280;9455;54.302;10.124;2024-03-23T07:21:24;100362.03;;;6.38;100.00
18652;BME280;9455;54.302;10.124;2024-03-23T07:23:50;100355.53;;;6.53;100.00
18652;BME280;9455;54.302;10.124;2024-03-23T07:26:16;100354.97;;;6.60;100.00
18652;BME280;9455;54.302;10.124;2024-03-23T07:28:44;100357.63;;;6.71;100.00
18652;BME280;9455;54.302;10.124;2024-03-23T07:31:13;100350.53;;;6.83;100.00
18652;BME280;9455;54.302;10.124;2024-03-23T07:33:44;100351.25;;;6.74;100.00
18652;BME280;9455;54.302;10.124;2024-03-23T07:36:10;100345.94;;;6.74;100.00
18652;BME280;9455;54.302;10.124;2024-03-23T07:38:37;100337.06;;;6.86;100.00
18652;BME280;9455;54.302;10.124;2024-03-23T07:41:04;100339.69;;;6.86;100.00
18652;BME280;9455;54.302;10.124;2024-03-23T07:43:30;100342.59;;;6.94;100.00
18652;BME280;9455;54.302;10.124;2024-03-23T07:45:56;100340.16;;;7.02;100.00
18652;BME280;9455;54.302;10.124;2024-03-23T07:48:24;100338.50;;;7.01;100.00
18652;BME280;9455;54.302;10.124;2024-03-23T07:51:00;100337.50;;;7.02;100.00
18652;BME280;9455;54.302;10.124;2024-03-23T07:53:27;100326.56;;;7.06;100.00
18652;BME280;9455;54.302;10.124;2024-03-23T07:55:57;100327.66;;;7.04;100.00
18652;BME280;9455;54.302;10.124;2024-03-23T07:58:24;100324.50;;;7.21;100.00
18652;BME280;9455;54.302;10.124;2024-03-23T08:00:49;100318.97;;;7.24;100.00
18652;BME280;9455;54.302;10.124;2024-03-23T08:03:16;100311.31;;;7.41;100.00
18652;BME280;9455;54.302;10.124;2024-03-23T08:05:43;100317.22;;;7.45;100.00
18652;BME280;9455;54.302;10.124;2024-03-23T08:08:10;100310.81;;;7.47;100.00
18652;BME280;9455;54.302;10.124;2024-03-23T08:10:36;100304.81;;;7.34;100.00
18652;BME280;9455;54.302;10.124;2024-03-23T08:13:03;100297.19;;;7.52;100.00
18652;BME280;9455;54.302;10.124;2024-03-23T08:15:30;100302.25;;;7.55;100.00
18652;BME280;9455;54.302;10.124;2024-03-23T08:17:58;100291.38;;;7.58;100.00
18652;BME280;9455;54.302;10.124;2024-03-23T08:20:23;100286.16;;;7.67;100.00
18652;BME280;9455;54.302;10.124;2024-03-23T08:22:51;100284.63;;;7.85;100.00
18652;BME280;9455;54.302;10.124;2024-03-23T08:25:17;100275.34;;;8.11;100.00
18652;BME280;9455;54.302;10.124;2024-03-23T08:27:44;100271.53;;;8.25;100.00
18652;BME280;9455;54.302;10.124;2024-03-23T08:30:10;100271.78;;;8.22;100.00
18652;BME280;9455;54.302;10.124;2024-03-23T08:32:37;100273.63;;;8.10;100.00
18652;BME280;9455;54.302;10.124;2024-03-23T08:35:03;100261.94;;;8.13;100.00
18652;BME280;9455;54.302;10.124;2024-03-23T08:37:30;100270.41;;;8.27;100.00
18652;BME280;9455;54.302;10.124;2024-03-23T08:39:57;100265.97;;;8.28;100.00
18652;BME280;9455;54.302;10.124;2024-03-23T08:42:24;100259.31;;;8.43;100.00
18652;BME280;9455;54.302;10.124;2024-03-23T08:44:49;100265.66;;;8.52;100.00
18652;BME280;9455;54.302;10.124;2024-03-23T08:47:16;100256.38;;;8.67;100.00
18652;BME280;9455;54.302;10.124;2024-03-23T08:49:42;100259.34;;;8.73;100.00
18652;BME280;9455;54.302;10.124;2024-03-23T08:52:08;100264.16;;;8.59;100.00
18652;BME280;9455;54.302;10.124;2024-03-23T08:54:34;100256.31;;;8.57;100.00
18652;BME280;9455;54.302;10.124;2024-03-23T08:57:02;100240.97;;;8.61;100.00
18652;BME280;9455;54.302;10.124;2024-03-23T08:59:28;100238.47;;;8.69;100.00
18652;BME280;9455;54.302;10.124;2024-03-23T09:01:54;100232.03;;;8.71;100.00
18652;BME280;9455;54.302;10.124;2024-03-23T09:04:20;100225.06;;;8.70;100.00
18652;BME280;9455;54.302;10.124;2024-03-23T09:06:47;100233.78;;;8.82;100.00
18652;BME280;9455;54.302;10.124;2024-03-23T09:09:13;100226.81;;;8.90;100.00
18652;BME280;9455;54.302;10.124;2024-03-23T09:11:39;100233.25;;;8.97;100.00
18652;BME280;9455;54.302;10.124;2024-03-23T09:14:06;100228.44;;;8.72;100.00
18652;BME280;9455;54.302;10.124;2024-03-23T09:16:34;100230.47;;;8.99;100.00
18652;BME280;9455;54.302;10.124;2024-03-23T09:19:00;100245.31;;;9.01;100.00
18652;BME280;9455;54.302;10.124;2024-03-23T09:21:27;100251.97;;;8.86;100.00
18652;BME280;9455;54.302;10.124;2024-03-23T09:23:52;100248.78;;;8.32;100.00
18652;BME280;9455;54.302;10.124;2024-03-23T09:26:19;100231.66;;;7.84;100.00
18652;BME280;9455;54.302;10.124;2024-03-23T09:28:44;100234.66;;;7.90;100.00
18652;BME280;9455;54.302;10.124;2024-03-23T09:31:15;100228.50;;;7.90;100.00
18652;BME280;9455;54.302;10.124;2024-03-23T09:33:41;100225.34;;;7.96;100.00
18652;BME280;9455;54.302;10.124;2024-03-23T09:36:08;100229.09;;;7.73;100.00
18652;BME280;9455;54.302;10.124;2024-03-23T09:38:34;100254.25;;;7.58;100.00
18652;BME280;9455;54.302;10.124;2024-03-23T09:41:07;100259.22;;;7.09;100.00
18652;BME280;9455;54.302;10.124;2024-03-23T09:43:32;100257.00;;;7.25;100.00
18652;BME280;9455;54.302;10.124;2024-03-23T09:45:59;100250.75;;;7.15;100.00
18652;BME280;9455;54.302;10.124;2024-03-23T09:48:28;100244.97;;;7.21;100.00
18652;BME280;9455;54.302;10.124;2024-03-23T09:50:54;100247.69;;;7.30;100.00
18652;BME280;9455;54.302;10.124;2024-03-23T09:53:20;100232.91;;;7.17;100.00
18652;BME280;9455;54.302;10.124;2024-03-23T09:55:47;100230.22;;;7.28;100.00
18652;BME280;9455;54.302;10.124;2024-03-23T09:58:15;100233.63;;;7.30;100.00
18652;BME280;9455;54.302;10.124;2024-03-23T10:00:41;100214.41;;;7.37;100.00
18652;BME280;9455;54.302;10.124;2024-03-23T10:03:07;100218.94;;;7.46;100.00
18652;BME280;9455;54.302;10.124;2024-03-23T10:05:38;100214.03;;;7.42;100.00
18652;BME280;9455;54.302;10.124;2024-03-23T10:08:17;100218.84;;;7.48;100.00
18652;BME280;9455;54.302;10.124;2024-03-23T10:10:45;100216.00;;;7.60;100.00
18652;BME280;9455;54.302;10.124;2024-03-23T10:13:11;100217.34;;;7.55;100.00
18652;BME280;9455;54.302;10.124;2024-03-23T10:15:38;100217.34;;;7.55;100.00
18652;BME280;9455;54.302;10.124;2024-03-23T10:18:17;100233.53;;;7.52;100.00
18652;BME280;9455;54.302;10.124;2024-03-23T10:20:47;100225.16;;;7.25;100.00
18652;BME280;9455;54.302;10.124;2024-03-23T10:23:15;100228.72;;;7.14;100.00
18652;BME280;9455;54.302;10.124;2024-03-23T10:25:42;100221.63;;;7.04;100.00
18652;BME280;9455;54.302;10.124;2024-03-23T10:28:08;100231.78;;;7.30;100.00
18652;BME280;9455;54.302;10.124;2024-03-23T10:30:36;100230.84;;;7.31;100.00
18652;BME280;9455;54.302;10.124;2024-03-23T10:33:09;100221.09;;;7.21;100.00
18652;BME280;9455;54.302;10.124;2024-03-23T10:35:36;100224.38;;;7.02;100.00
18652;BME280;9455;54.302;10.124;2024-03-23T10:38:05;100211.88;;;6.82;100.00
18652;BME280;9455;54.302;10.124;2024-03-23T10:40:34;100212.03;;;6.70;100.00
18652;BME280;9455;54.302;10.124;2024-03-23T10:43:00;100217.59;;;6.78;100.00
18652;BME280;9455;54.302;10.124;2024-03-23T10:45:27;100212.28;;;6.67;100.00
18652;BME280;9455;54.302;10.124;2024-03-23T10:47:53;100219.72;;;6.84;100.00
18652;BME280;9455;54.302;10.124;2024-03-23T10:50:19;100199.94;;;6.88;100.00
18652;BME280;9455;54.302;10.124;2024-03-23T10:52:47;100210.69;;;6.97;100.00
18652;BME280;9455;54.302;10.124;2024-03-23T10:55:17;100202.69;;;7.40;100.00
18652;BME280;9455;54.302;10.124;2024-03-23T10:57:45;100196.44;;;7.61;100.00
18652;BME280;9455;54.302;10.124;2024-03-23T11:00:15;100197.75;;;7.87;100.00
18652;BME280;9455;54.302;10.124;2024-03-23T11:02:41;100180.03;;;8.38;100.00
18652;BME280;9455;54.302;10.124;2024-03-23T11:05:29;100191.16;;;8.63;100.00
18652;BME280;9455;54.302;10.124;2024-03-23T11:07:55;100200.13;;;8.62;100.00
18652;BME280;9455;54.302;10.124;2024-03-23T11:10:27;100176.91;;;8.64;100.00
18652;BME280;9455;54.302;10.124;2024-03-23T11:12:54;100184.81;;;8.84;100.00
18652;BME280;9455;54.302;10.124;2024-03-23T11:15:21;100181.13;;;8.66;100.00
18652;BME280;9455;54.302;10.124;2024-03-23T11:18:02;100173.63;;;8.90;100.00
18652;BME280;9455;54.302;10.124;2024-03-23T11:20:31;100167.34;;;9.01;100.00
18652;BME280;9455;54.302;10.124;2024-03-23T11:22:57;100177.44;;;9.16;100.00
18652;BME280;9455;54.302;10.124;2024-03-23T11:25:26;100176.03;;;8.93;100.00
18652;BME280;9455;54.302;10.124;2024-03-23T11:27:53;100165.53;;;9.01;100.00
18652;BME280;9455;54.302;10.124;2024-03-23T11:30:21;100157.16;;;9.15;100.00
18652;BME280;9455;54.302;10.124;2024-03-23T11:32:48;100166.94;;;9.43;100.00
18652;BME280;9455;54.302;10.124;2024-03-23T11:35:28;100173.94;;;9.35;100.00
18652;BME280;9455;54.302;10.124;2024-03-23T11:38:07;100169.44;;;9.16;100.00
18652;BME280;9455;54.302;10.124;2024-03-23T11:40:36;100194.16;;;8.79;100.00
18652;BME280;9455;54.302;10.124;2024-03-23T11:43:03;100204.84;;;8.07;100.00
18652;BME280;9455;54.302;10.124;2024-03-23T11:45:34;100188.09;;;7.86;100.00
18652;BME280;9455;54.302;10.124;2024-03-23T11:48:08;100202.03;;;7.79;100.00
18652;BME280;9455;54.302;10.124;2024-03-23T11:50:37;100203.78;;;7.69;100.00
18652;BME280;9455;54.302;10.124;2024-03-23T11:53:12;100188.34;;;7.63;100.00
18652;BME280;9455;54.302;10.124;2024-03-23T11:55:42;100175.41;;;7.49;100.00
18652;BME280;9455;54.302;10.124;2024-03-23T11:58:08;100196.38;;;7.52;100.00
18652;BME280;9455;54.302;10.124;2024-03-23T12:00:34;100170.72;;;7.52;100.00
18652;BME280;9455;54.302;10.124;2024-03-23T12:03:00;100172.38;;;7.22;100.00
18652;BME280;9455;54.302;10.124;2024-03-23T12:05:27;100159.00;;;7.55;100.00
18652;BME280;9455;54.302;10.124;2024-03-23T12:07:53;100158.91;;;7.66;100.00
18652;BME280;9455;54.302;10.124;2024-03-23T12:10:20;100155.09;;;8.00;100.00
18652;BME280;9455;54.302;10.124;2024-03-23T12:12:59;100157.66;;;8.11;100.00
18652;BME280;9455;54.302;10.124;2024-03-23T12:15:26;100149.41;;;8.14;100.00
18652;BME280;9455;54.302;10.124;2024-03-23T12:18:05;100144.44;;;8.51;100.00
18652;BME280;9455;54.302;10.124;2024-03-23T12:20:32;100141.41;;;8.74;100.00
18652;BME280;9455;54.302;10.124;2024-03-23T12:23:05;100159.22;;;9.02;100.00
18652;BME280;9455;54.302;10.124;2024-03-23T12:25:32;100149.72;;;9.00;100.00
18652;BME280;9455;54.302;10.124;2024-03-23T12:27:59;100159.56;;;8.60;100.00
18652;BME280;9455;54.302;10.124;2024-03-23T12:30:25;100190.44;;;8.51;100.00
18652;BME280;9455;54.302;10.124;2024-03-23T12:32:51;100192.63;;;7.54;100.00
18652;BME280;9455;54.302;10.124;2024-03-23T12:35:18;100190.91;;;7.01;100.00
18652;BME280;9455;54.302;10.124;2024-03-23T12:37:43;100174.78;;;7.25;100.00
18652;BME280;9455;54.302;10.124;2024-03-23T12:40:10;100165.41;;;7.21;100.00
18652;BME280;9455;54.302;10.124;2024-03-23T12:42:36;100156.59;;;7.52;100.00
18652;BME280;9455;54.302;10.124;2024-03-23T12:45:05;100144.09;;;7.84;100.00
18652;BME280;9455;54.302;10.124;2024-03-23T12:47:31;100158.13;;;7.95;100.00
18652;BME280;9455;54.302;10.124;2024-03-23T12:49:57;100160.34;;;8.20;100.00
18652;BME280;9455;54.302;10.124;2024-03-23T12:52:23;100144.50;;;8.09;100.00
18652;BME280;9455;54.302;10.124;2024-03-23T12:54:54;100143.22;;;8.04;100.00
18652;BME280;9455;54.302;10.124;2024-03-23T12:57:22;100154.22;;;8.20;100.00
18652;BME280;9455;54.302;10.124;2024-03-23T12:59:48;100140.94;;;8.20;100.00
18652;BME280;9455;54.302;10.124;2024-03-23T13:02:18;100141.16;;;8.37;100.00
18652;BME280;9455;54.302;10.124;2024-03-23T13:04:46;100143.84;;;8.47;100.00
18652;BME280;9455;54.302;10.124;2024-03-23T13:07:12;100154.16;;;8.31;100.00
18652;BME280;9455;54.302;10.124;2024-03-23T13:09:39;100143.56;;;8.50;100.00
18652;BME280;9455;54.302;10.124;2024-03-23T13:12:05;100159.00;;;8.66;100.00
18652;BME280;9455;54.302;10.124;2024-03-23T13:14:32;100145.59;;;8.67;100.00
18652;BME280;9455;54.302;10.124;2024-03-23T13:16:57;100141.94;;;8.68;100.00
18652;BME280;9455;54.302;10.124;2024-03-23T13:19:25;100148.50;;;8.64;100.00
18652;BME280;9455;54.302;10.124;2024-03-23T13:21:55;100148.09;;;8.69;100.00
18652;BME280;9455;54.302;10.124;2024-03-23T13:24:22;100138.66;;;8.45;100.00
18652;BME280;9455;54.302;10.124;2024-03-23T13:26:49;100135.97;;;8.36;100.00
18652;BME280;9455;54.302;10.124;2024-03-23T13:29:15;100137.50;;;8.29;100.00
18652;BME280;9455;54.302;10.124;2024-03-23T13:31:42;100140.88;;;8.31;100.00
18652;BME280;9455;54.302;10.124;2024-03-23T13:34:07;100146.06;;;8.42;100.00
18652;BME280;9455;54.302;10.124;2024-03-23T13:36:35;100145.53;;;8.48;100.00
18652;BME280;9455;54.302;10.124;2024-03-23T13:39:01;100136.22;;;8.63;100.00
18652;BME280;9455;54.302;10.124;2024-03-23T13:41:30;100136.81;;;8.76;100.00
18652;BME280;9455;54.302;10.124;2024-03-23T13:43:56;100136.66;;;8.78;100.00